Flight Track Log - Related Links

Times and Time Zones

All times are in EDT time to prevent confusion due to time zone crossing. See the RJA610 flight status page for this flight to view local times or setup timezone preferences in your user account.

Time Position Orientation Groundspeed Altitude Reporting Facility
EDT Latitude Longitude Course Direction KTS MPH feet Rate Location/Type
Tue 01:10:14 AM 31.7140 35.9740 261° West 155 178 3,500  Level FlightAware ADS-B
Tue 01:10:35 AM 31.7120 35.9570 262° West 163 188 4,200 1,650 Climbing FlightAware ADS-B
Tue 01:10:54 AM 31.7090 35.9380 259° West 186 214 4,600 1,125 Climbing FlightAware ADS-B
Tue 01:11:23 AM 31.7040 35.9060 260° West 230 265 5,100 973 Climbing FlightAware ADS-B
Tue 01:11:31 AM 31.7010 35.8990 243° Southwest 239 275 5,200 1,500 Climbing FlightAware ADS-B
Tue 01:11:39 AM 31.6940 35.8900 228° Southwest 256 295 5,500 2,400 Climbing FlightAware ADS-B
Tue 01:11:46 AM 31.6870 35.8840 216° Southwest 264 304 5,800 2,667 Climbing FlightAware ADS-B
Tue 01:11:57 AM 31.6730 35.8800 194° South 277 319 6,300 2,634 Climbing FlightAware ADS-B
Tue 01:12:27 AM 31.6340 35.8910 166° South 295 339 7,600 2,341 Climbing FlightAware ADS-B
Tue 01:12:38 AM 31.6190 35.8970 161° South 296 341 7,900 686 Climbing FlightAware ADS-B
Tue 01:13:02 AM 31.5890 35.9120 157° South 296 341 8,000 194 Climbing FlightAware ADS-B
Tue 01:13:09 AM 31.5810 35.9180 147° Southeast 304 350 8,000  Level FlightAware ADS-B
Tue 01:13:15 AM 31.5750 35.9260 131° Southeast 308 354 8,000  Level FlightAware ADS-B
Tue 01:13:24 AM 31.5680 35.9390 122° Southeast 312 359 8,000  Level FlightAware ADS-B
Tue 01:13:35 AM 31.5620 35.9550 114° Southeast 311 358 8,000 1,333 Level FlightAware ADS-B
Tue 01:14:00 AM 31.5460 35.9930 116° Southeast 314 361 8,800 2,270 Climbing FlightAware ADS-B
Tue 01:14:12 AM 31.5380 36.0120 116° Southeast 316 364 9,400 2,298 Climbing FlightAware ADS-B
Tue 01:14:47 AM 31.5140 36.0670 117° Southeast 340 391 10,600 1,417 Climbing FlightAware ADS-B
Tue 01:15:24 AM 31.4860 36.1330 116° Southeast 385 443 11,100 1,130 Climbing FlightAware ADS-B
Tue 01:15:56 AM 31.4590 36.1960 117° Southeast 407 468 11,900 1,791 Climbing FlightAware ADS-B
Tue 01:16:31 AM 31.4300 36.2640 117° Southeast 416 479 13,100 2,282 Climbing FlightAware ADS-B
Tue 01:17:07 AM 31.3990 36.3370 116° Southeast 416 479 14,600 2,301 Climbing FlightAware ADS-B
Tue 01:17:44 AM 31.3670 36.4130 116° Southeast 424 488 15,900 1,973 Climbing FlightAware ADS-B
Tue 01:18:20 AM 31.3350 36.4880 117° Southeast 431 496 17,000 1,714 Climbing FlightAware ADS-B
Tue 01:18:40 AM 31.3200 36.5320 112° Southeast 444 511 17,500 1,600 Climbing FlightAware ADS-B
Tue 01:18:50 AM 31.3180 36.5550 96° East 451 519 17,800 1,886 Climbing FlightAware ADS-B
Tue 01:19:15 AM 31.3240 36.6150 83° East 454 522 18,600 1,119 Climbing FlightAware ADS-B
Tue 01:19:49 AM 31.3340 36.6870 81° East 454 522 18,900 257 Climbing FlightAware ADS-B
Tue 01:20:25 AM 31.3440 36.7610 81° East 454 522 18,900 2,028 Level FlightAware ADS-B
Tue 01:21:00 AM 31.3590 36.8790 82° East 476 548 21,300 2,824 Climbing FlightAware ADS-B
Tue 01:21:33 AM 31.3700 36.9600 81° East 480 552 22,100 1,324 Climbing FlightAware ADS-B
Tue 01:22:08 AM 31.3820 37.0530 81° East 487 560 22,800 1,083 Climbing FlightAware ADS-B
Tue 01:22:45 AM 31.3940 37.1500 82° East 499 574 23,400 1,029 Climbing FlightAware ADS-B
Tue 01:23:18 AM 31.4050 37.2390 82° East 500 575 24,000 1,082 Climbing FlightAware ADS-B
Tue 01:23:46 AM 31.3990 37.3130 95° East 495 570 24,500 1,000 Climbing FlightAware ADS-B
Tue 01:24:30 AM 31.3570 37.4200 115° Southeast 497 572 25,200 1,038 Climbing FlightAware ADS-B
Tue 01:25:30 AM 31.2970 37.5670 116° Southeast 505 581 26,300 1,018 Climbing FlightAware ADS-B
Tue 01:26:22 AM 31.2440 37.6950 116° Southeast 512 589 27,100 897 Climbing FlightAware ADS-B
Tue 01:26:57 AM 31.2080 37.7810 116° Southeast 515 593 27,600 936 Climbing FlightAware ADS-B
Tue 01:28:11 AM 31.1300 37.9680 116° Southeast 522 601 28,800 984 Climbing FlightAware ADS-B
Tue 01:28:59 AM 31.0810 38.0860 116° Southeast 525 604 29,600 558 Climbing FlightAware ADS-B
Tue 01:29:37 AM 31.0480 38.1690 115° Southeast 525 604 29,600 935 Level FlightAware ADS-B
Tue 01:30:16 AM 30.9970 38.2850 117° Southeast 525 604 30,800 857 Climbing FlightAware ADS-B
Tue 01:31:29 AM 30.9280 38.4490 116° Southeast 525 604 31,200 220 Climbing FlightAware ADS-B
Tue 01:32:05 AM 30.8950 38.5270 116° Southeast 525 604 31,200  Level FlightAware ADS-B
Tue 01:32:53 AM 30.8520 38.6310 116° Southeast 525 604 31,200  Level FlightAware ADS-B
Tue 01:33:29 AM 30.8190 38.7090 116° Southeast 525 604 31,200  Level FlightAware ADS-B
Tue 01:34:05 AM 30.7870 38.7870 116° Southeast 525 604 31,200  Level FlightAware ADS-B
Tue 01:34:41 AM 30.7540 38.8640 116° Southeast 525 604 31,200  Level FlightAware ADS-B
Tue 01:35:17 AM 30.7220 38.9420 115° Southeast 525 604 31,200  Level FlightAware ADS-B
Tue 01:35:53 AM 30.6890 39.0200 116° Southeast 525 604 31,200  Level FlightAware ADS-B
Tue 01:36:30 AM 30.6550 39.1000 116° Southeast 525 604 31,200  Level FlightAware ADS-B
Tue 01:37:07 AM 30.6220 39.1790 116° Southeast 525 604 31,200  Level FlightAware ADS-B
Tue 01:37:43 AM 30.5890 39.2570 116° Southeast 525 604 31,200  Level FlightAware ADS-B
Tue 01:38:19 AM 30.5570 39.3350 115° Southeast 525 604 31,200  Level FlightAware ADS-B
Tue 01:38:55 AM 30.5240 39.4120 116° Southeast 525 604 31,200  Level FlightAware ADS-B
Tue 01:39:31 AM 30.4920 39.4900 115° Southeast 525 604 31,200  Level FlightAware ADS-B
Tue 01:40:07 AM 30.4590 39.5670 116° Southeast 525 604 31,200 54 Level FlightAware ADS-B
Tue 01:42:00 AM 30.4016 39.7894 107° East  Level Estimated
Tue 01:43:00 AM 30.3710 39.9074 107° East  Level Estimated
Tue 01:44:00 AM 30.3403 40.0253 107° East  Level Estimated
Tue 01:45:00 AM 30.3095 40.1431 107° East  Level Estimated
Tue 01:46:00 AM 30.2786 40.2609 107° East  Level Estimated
Tue 01:47:00 AM 30.2475 40.3786 107° East  Level Estimated
Tue 01:48:00 AM 30.2164 40.4962 107° East  Level Estimated
Tue 01:49:00 AM 30.1852 40.6137 107° East  Level Estimated
Tue 01:50:00 AM 30.1538 40.7312 107° East  Level Estimated
Tue 01:51:00 AM 30.1224 40.8485 107° East  Level Estimated
Tue 01:52:00 AM 30.0908 40.9658 107° East  Level Estimated
Tue 01:53:00 AM 30.0591 41.0831 107° East  Level Estimated
Tue 01:54:00 AM 30.0274 41.2002 107° East  Level Estimated
Tue 01:55:00 AM 29.9955 41.3173 107° East  Level Estimated
Tue 01:56:00 AM 29.9635 41.4343 107° East  Level Estimated
Tue 01:57:00 AM 29.9315 41.5513 108° East  Level Estimated
Tue 01:58:00 AM 29.8993 41.6681 108° East  Level Estimated
Tue 01:59:00 AM 29.8670 41.7849 108° East  Level Estimated
Tue 02:00:00 AM 29.8346 41.9016 108° East  Level Estimated
Tue 02:01:00 AM 29.8021 42.0182 108° East  Level Estimated
Tue 02:02:00 AM 29.7695 42.1348 108° East  Level Estimated
Tue 02:03:00 AM 29.7369 42.2513 108° East  Level Estimated
Tue 02:04:00 AM 29.7041 42.3677 108° East  Level Estimated
Tue 02:05:00 AM 29.6712 42.4840 108° East  Level Estimated
Tue 02:06:00 AM 29.6382 42.6003 108° East  Level Estimated
Tue 02:07:00 AM 29.6051 42.7164 108° East  Level Estimated
Tue 02:08:00 AM 29.5719 42.8325 108° East  Level Estimated
Tue 02:09:00 AM 29.5386 42.9485 108° East  Level Estimated
Tue 02:10:00 AM 29.5052 43.0645 108° East  Level Estimated
Tue 02:11:00 AM 29.4717 43.1804 108° East  Level Estimated
Tue 02:12:00 AM 29.4381 43.2962 108° East  Level Estimated
Tue 02:13:00 AM 29.4044 43.4119 108° East  Level Estimated
Tue 02:14:00 AM 29.3706 43.5275 109° East  Level Estimated
Tue 02:15:00 AM 29.3367 43.6431 109° East  Level Estimated
Tue 02:16:00 AM 29.3027 43.7585 109° East  Level Estimated
Tue 02:17:00 AM 29.2686 43.8740 109° East  Level Estimated
Tue 02:18:00 AM 29.2344 43.9893 109° East  Level Estimated
Tue 02:19:00 AM 29.2001 44.1045 109° East  Level Estimated
Tue 02:20:00 AM 29.1657 44.2197 109° East  Level Estimated
Tue 02:21:00 AM 29.1312 44.3348 109° East  Level Estimated
Tue 02:22:00 AM 29.0966 44.4498 109° East  Level Estimated
Tue 02:23:00 AM 29.0619 44.5648 109° East  Level Estimated
Tue 02:24:00 AM 29.0271 44.6796 109° East  Level Estimated
Tue 02:25:00 AM 28.9922 44.7944 109° East  Level Estimated
Tue 02:26:00 AM 28.9572 44.9091 109° East  Level Estimated
Tue 02:27:00 AM 28.9222 45.0238 109° East  Level Estimated
Tue 02:28:00 AM 28.8870 45.1383 109° East  Level Estimated
Tue 02:29:00 AM 28.8517 45.2528 109° East  Level Estimated
Tue 02:30:00 AM 28.8163 45.3672 109° East  Level Estimated
Tue 02:31:00 AM 28.7809 45.4815 109° East  Level Estimated
Tue 02:32:00 AM 28.7453 45.5958 110° East  Level Estimated
Tue 02:33:00 AM 28.7097 45.7100 110° East  Level Estimated
Tue 02:34:00 AM 28.6739 45.8241 110° East  Level Estimated
Tue 02:35:00 AM 28.6380 45.9381 110° East  Level Estimated
Tue 02:36:00 AM 28.6021 46.0520 110° East  Level Estimated
Tue 02:37:00 AM 28.5660 46.1659 110° East  Level Estimated
Tue 02:38:00 AM 28.5299 46.2796 110° East  Level Estimated
Tue 02:39:00 AM 28.4937 46.3933 110° East  Level Estimated
Tue 02:40:00 AM 28.4573 46.5070 110° East  Level Estimated
Tue 02:41:00 AM 28.4209 46.6205 110° East  Level Estimated
Tue 02:42:00 AM 28.3844 46.7340 110° East  Level Estimated
Tue 02:43:00 AM 28.3478 46.8474 110° East  Level Estimated
Tue 02:44:00 AM 28.3111 46.9607 110° East  Level Estimated
Tue 02:45:00 AM 28.2743 47.0739 110° East  Level Estimated
Tue 02:46:00 AM 28.2374 47.1870 110° East  Level Estimated
Tue 02:47:00 AM 28.2004 47.3001 110° East  Level Estimated
Tue 02:48:00 AM 28.1634 47.4131 110° East  Level Estimated
Tue 02:49:00 AM 28.1262 47.5260 110° East  Level Estimated
Tue 02:49:16 AM 26.9960 49.7950 110° East 490 564 35,000  Level FlightAware ADS-B
Tue 02:49:50 AM 26.9820 49.8930 99° East 490 564 35,000  Level FlightAware ADS-B
Tue 02:50:41 AM 26.9650 50.0140 99° East 490 564 35,000  Level FlightAware ADS-B
Tue 02:51:15 AM 26.9560 50.0870 98° East 490 564 35,000  Level FlightAware ADS-B
Tue 02:51:54 AM 26.9380 50.2000 100° East 492 566 35,000  Level FlightAware ADS-B
Tue 02:52:29 AM 26.9250 50.2930 99° East 492 566 35,000  Level FlightAware ADS-B
Tue 02:53:08 AM 26.9140 50.3760 98° East 492 566 35,000  Level FlightAware ADS-B
Tue 02:53:44 AM 26.8960 50.4860 100° East 492 566 35,000  Level FlightAware ADS-B
Tue 02:54:20 AM 26.8840 50.5710 99° East 492 566 35,000  Level FlightAware ADS-B
Tue 02:54:54 AM 26.8710 50.6570 100° East 492 566 35,000  Level FlightAware ADS-B
Tue 02:55:40 AM 26.8540 50.7760 99° East 491 565 35,000  Level FlightAware ADS-B
Tue 02:56:17 AM 26.8430 50.8540 99° East 491 565 35,000  Level FlightAware ADS-B
Tue 02:56:50 AM 26.8250 50.9460 102° East 488 562 35,000  Level FlightAware ADS-B
Tue 02:57:24 AM 26.8010 51.0270 108° East 488 562 35,000  Level FlightAware ADS-B
Tue 02:57:55 AM 26.7720 51.1040 113° Southeast 486 559 35,000  Level FlightAware ADS-B
Tue 02:58:34 AM 26.7430 51.1940 110° East 482 555 35,000  Level FlightAware ADS-B
Tue 02:59:09 AM 26.7160 51.2800 109° East 480 552 35,000  Level FlightAware ADS-B
Tue 02:59:44 AM 26.6900 51.3600 110° East 481 554 35,000  Level FlightAware ADS-B
Tue 03:00:20 AM 26.6630 51.4440 110° East 481 554 35,000  Level FlightAware ADS-B
Tue 03:00:54 AM 26.6380 51.5230 109° East 479 551 35,000  Level FlightAware ADS-B
Tue 03:01:30 AM 26.6110 51.6070 110° East 479 551 35,000  Level FlightAware ADS-B
Tue 03:02:04 AM 26.5850 51.6870 110° East 478 550 35,000  Level FlightAware ADS-B
Tue 03:02:40 AM 26.5580 51.7690 110° East 478 550 35,000  Level FlightAware ADS-B
Tue 03:02:50 AM 26.5510 51.7920 111° Southeast 478 550 35,000  Level FlightAware ADS-B
Tue 03:05:00 AM 26.4683 52.0274 111° Southeast  Level Estimated
Tue 03:06:00 AM 26.4297 52.1380 111° Southeast  Level Estimated
Tue 03:07:00 AM 26.3910 52.2485 111° Southeast  Level Estimated
Tue 03:07:44 AM 26.3370 52.4280 110° East 479 551 35,000  Level FlightAware ADS-B
Tue 03:08:35 AM 26.3010 52.5270 112° Southeast 479 551 35,000 -743 Level FlightAware ADS-B
Tue 03:09:29 AM 26.2460 52.6660 114° Southeast 478 550 33,700 -2,259 Descending FlightAware ADS-B
Tue 03:10:00 AM 26.2030 52.7790 113° Southeast 479 551 31,800 -2,535 Descending FlightAware ADS-B
Tue 03:10:40 AM 26.1670 52.8720 113° Southeast 478 550 30,700 -1,301 Descending FlightAware ADS-B
Tue 03:11:23 AM 26.1430 52.9360 113° Southeast 478 550 30,000 -1,520 Descending FlightAware ADS-B
Tue 03:11:55 AM 26.1010 53.0440 113° Southeast 484 557 28,800 -1,500 Descending FlightAware ADS-B
Tue 03:12:35 AM 26.0670 53.1340 113° Southeast 481 554 28,200 -960 Descending FlightAware ADS-B
Tue 03:13:10 AM 26.0380 53.2140 112° Southeast 478 550 27,600 -943 Descending FlightAware ADS-B
Tue 03:13:45 AM 26.0090 53.2930 112° Southeast 479 551 27,100 -943 Descending FlightAware ADS-B
Tue 03:14:20 AM 25.9800 53.3730 112° Southeast 474 545 26,500 -1,114 Descending FlightAware ADS-B
Tue 03:14:55 AM 25.9520 53.4470 113° Southeast 470 541 25,800 -1,360 Descending FlightAware ADS-B
Tue 03:15:35 AM 25.9180 53.5370 113° Southeast 461 531 24,800 -1,658 Descending FlightAware ADS-B
Tue 03:16:11 AM 25.8870 53.6140 114° Southeast 448 516 23,700 -1,840 Descending FlightAware ADS-B
Tue 03:16:50 AM 25.8550 53.6950 114° Southeast 434 499 22,500 -1,784 Descending FlightAware ADS-B
Tue 03:17:25 AM 25.8260 53.7650 115° Southeast 418 481 21,500 -1,760 Descending FlightAware ADS-B
Tue 03:18:05 AM 25.7950 53.8440 114° Southeast 410 472 20,300 -1,600 Descending FlightAware ADS-B
Tue 03:18:40 AM 25.7680 53.9120 114° Southeast 408 470 19,500 -1,292 Descending FlightAware ADS-B
Tue 03:19:10 AM 25.7490 53.9690 110° East 401 461 18,900 -1,015 Descending FlightAware ADS-B
Tue 03:19:45 AM 25.7350 54.0400 102° East 402 463 18,400 -923 Descending FlightAware ADS-B
Tue 03:20:15 AM 25.7230 54.1000 103° East 402 463 17,900 -1,015 Descending FlightAware ADS-B
Tue 03:20:50 AM 25.7090 54.1690 103° East 400 460 17,300 -943 Descending FlightAware ADS-B
Tue 03:21:25 AM 25.6950 54.2390 102° East 396 456 16,800 -911 Descending FlightAware ADS-B
Tue 03:22:09 AM 25.6780 54.3260 102° East 386 444 16,100 -963 Descending FlightAware ADS-B
Tue 03:22:46 AM 25.6630 54.3990 103° East 386 444 15,500 -1,029 Descending FlightAware ADS-B
Tue 03:23:19 AM 25.6510 54.4610 102° East 378 435 14,900 -870 Descending FlightAware ADS-B
Tue 03:23:55 AM 25.6370 54.5290 103° East 346 398 14,500 -583 Descending FlightAware ADS-B
Tue 03:24:31 AM 25.6250 54.5890 102° East 321 369 14,200 -658 Descending FlightAware ADS-B
Tue 03:25:08 AM 25.6140 54.6470 102° East 312 359 13,700 -794 Descending FlightAware ADS-B
Tue 03:25:39 AM 25.6040 54.6940 103° East 312 359 13,300 -771 Descending FlightAware ADS-B
Tue 03:26:18 AM 25.5950 54.7560 99° East 312 359 12,800 -771 Descending FlightAware ADS-B
Tue 03:26:49 AM 25.5880 54.8060 99° East 310 357 12,400 -794 Descending FlightAware ADS-B
Tue 03:27:26 AM 25.5810 54.8610 98° East 295 339 11,900 -815 Descending FlightAware ADS-B
Tue 03:28:10 AM 25.5730 54.9240 98° East 281 323 11,300 -873 Descending FlightAware ADS-B
Tue 03:28:21 AM 25.5680 54.9410 108° East 280 322 11,100 -889 Descending FlightAware ADS-B
Tue 03:28:37 AM 25.5580 54.9620 118° Southeast 281 323 10,900 -750 Descending FlightAware ADS-B
Tue 03:29:09 AM 25.5370 55.0000 121° Southeast 279 321 10,500 -783 Descending FlightAware ADS-B
Tue 03:29:46 AM 25.5120 55.0460 121° Southeast 275 316 10,000 -792 Descending FlightAware ADS-B
Tue 03:30:02 AM 25.5020 55.0630 123° Southeast 272 313 9,800 -686 Descending FlightAware ADS-B
Tue 03:30:21 AM 25.4890 55.0870 121° Southeast 270 311 9,600 -769 Descending FlightAware ADS-B
Tue 03:30:41 AM 25.4760 55.1100 122° Southeast 272 313 9,300 -878 Descending FlightAware ADS-B
Tue 03:31:02 AM 25.4620 55.1350 122° Southeast 272 313 9,000 -811 Descending FlightAware ADS-B
Tue 03:31:18 AM 25.4510 55.1550 121° Southeast 272 313 8,800 -686 Descending FlightAware ADS-B
Tue 03:31:37 AM 25.4390 55.1770 121° Southeast 272 313 8,600 -833 Descending FlightAware ADS-B
Tue 03:31:54 AM 25.4280 55.1970 121° Southeast 269 310 8,300 -429 Descending FlightAware ADS-B
Tue 03:32:19 AM 25.4120 55.2250 122° Southeast 266 306 8,300  Level FlightAware ADS-B
Tue 03:32:42 AM 25.3970 55.2530 121° Southeast 268 308 8,300  Level FlightAware ADS-B
Tue 03:33:03 AM 25.3830 55.2780 122° Southeast 267 307 8,300  Level FlightAware ADS-B
Tue 03:33:23 AM 25.3710 55.3000 121° Southeast 266 306 8,300  Level FlightAware ADS-B
Tue 03:33:42 AM 25.3580 55.3230 122° Southeast 266 306 8,300 -279 Level FlightAware ADS-B
Tue 03:34:06 AM 25.3430 55.3500 122° Southeast 250 288 8,100 -409 Descending FlightAware ADS-B
Tue 03:34:26 AM 25.3310 55.3710 122° Southeast 241 277 8,000 -615 Descending FlightAware ADS-B
Tue 03:34:45 AM 25.3200 55.3910 121° Southeast 239 275 7,700 -878 Descending FlightAware ADS-B
Tue 03:35:07 AM 25.3080 55.4130 121° Southeast 235 270 7,400 -913 Descending FlightAware ADS-B
Tue 03:35:31 AM 25.2940 55.4380 122° Southeast 234 269 7,000 -1,029 Descending FlightAware ADS-B
Tue 03:35:42 AM 25.2880 55.4490 121° Southeast 235 270 6,800 -1,091 Descending FlightAware ADS-B
Tue 03:36:04 AM 25.2750 55.4720 122° Southeast 235 270 6,400 -1,024 Descending FlightAware ADS-B
Tue 03:36:23 AM 25.2650 55.4910 120° Southeast 228 262 6,100 -923 Descending FlightAware ADS-B
Tue 03:36:43 AM 25.2540 55.5110 121° Southeast 229 264 5,800 -1,091 Descending FlightAware ADS-B
Tue 03:36:56 AM 25.2470 55.5240 121° Southeast 230 265 5,500 -1,412 Descending FlightAware ADS-B
Tue 03:37:17 AM 25.2350 55.5460 121° Southeast 232 267 5,000 -1,149 Descending FlightAware ADS-B
Tue 03:37:43 AM 25.2200 55.5720 123° Southeast 231 266 4,600 -933 Descending FlightAware ADS-B
Tue 03:38:02 AM 25.2100 55.5910 120° Southeast 228 262 4,300 -563 Descending FlightAware ADS-B
Tue 03:38:15 AM 25.2030 55.6040 121° Southeast 215 247 4,300  Level FlightAware ADS-B
Tue 03:38:40 AM 25.1900 55.6260 123° Southeast 211 243 4,300 -158 Level FlightAware ADS-B
Tue 03:38:53 AM 25.1830 55.6380 123° Southeast 207 238 4,200 -429 Descending FlightAware ADS-B
Tue 03:39:08 AM 25.1710 55.6450 152° Southeast 195 224 4,100 -316 Descending FlightAware ADS-B
Tue 03:39:12 AM 25.1670 55.6450 180° South 192 221 4,100 -1,286 Level FlightAware ADS-B
Tue 03:39:36 AM 25.1470 55.6370 200° South 194 223 3,500 -1,116 Descending FlightAware ADS-B
Tue 03:39:55 AM 25.1350 55.6250 222° Southwest 186 214 3,300 -429 Descending FlightAware ADS-B
Tue 03:40:04 AM 25.1340 55.6170 262° West 180 207 3,300  Level FlightAware ADS-B
Tue 03:40:31 AM 25.1340 55.5930 270° West 175 201 3,300 -154 Level FlightAware ADS-B
Tue 03:40:43 AM 25.1350 55.5820 276° West 181 208 3,200  Descending FlightAware ADS-B
Tue 03:40:51 AM 25.1380 55.5750 295° West 177 204 3,300 207 Climbing FlightAware ADS-B
Tue 03:41:12 AM 25.1450 55.5580 294° West 175 201 3,300 -150 Level FlightAware ADS-B
Tue 03:41:31 AM 25.1540 55.5430 304° West 175 201 3,200 -558 Descending FlightAware ADS-B
Tue 03:41:55 AM 25.1630 55.5260 300° West 171 197 2,900 -933 Descending FlightAware ADS-B
Tue 03:42:16 AM 25.1720 55.5100 302° West 174 200 2,500 -900 Descending FlightAware ADS-B
Tue 03:42:35 AM 25.1800 55.4960 302° West 165 190 2,300 -686 Descending FlightAware ADS-B
Tue 03:42:51 AM 25.1860 55.4840 299° West 161 185 2,100 -833 Descending FlightAware ADS-B
Tue 03:43:11 AM 25.1940 55.4710 304° West 158 182 1,800 -769 Descending FlightAware ADS-B
Tue 03:43:30 AM 25.2010 55.4570 299° West 149 171 1,600 -727 Descending FlightAware ADS-B
Tue 03:43:44 AM 25.2060 55.4490 305° West 142 163 1,400 -789 Descending FlightAware ADS-B
Tue 03:44:08 AM 25.2140 55.4350 302° West 135 155 1,100 -686 Descending FlightAware ADS-B
Tue 03:44:19 AM 25.2170 55.4280 295° West 137 158 1,000 -563 Descending FlightAware ADS-B
Tue 03:44:40 AM 25.2250 55.4150 304° West 139 160 800 -698 Descending FlightAware ADS-B
Tue 03:45:02 AM 25.2320 55.4020 301° West 134 154 500 -526 Descending FlightAware ADS-B
Tue 03:45:37 AM 25.2430 55.3830 303° West 113 130 300 -343 Descending FlightAware ADS-B

Login

Don't have an account? Register now (free) for customized features, flight alerts, and more!